Time;durP1;ratioP1;P1;durP2;ratioP2;P2;SDS_P1;SDS_P2;PMS_P1;PMS_P2;Temp;Humidity;BMP_temperature;BMP_pressure;BME280_temperature;BME280_humidity;BME280_pressure;Samples;Min_cycle;Max_cycle;Signal;HPM_P1;HPM_P2
2023/10/15 00:01:18;;;;;;;8.00;1.70;;;8.50;99.90;;;;;;10336065;28;20243;-79
2023/10/15 00:06:40;;;;;;;10.77;2.37;;;8.50;99.90;;;;;;10344824;28;20202;-79
2023/10/15 00:12:01;;;;;;;7.80;2.07;;;8.40;99.90;;;;;;10350084;28;20210;-78
2023/10/15 00:17:22;;;;;;;9.13;1.77;;;8.40;99.90;;;;;;10360139;28;20205;-78
2023/10/15 00:22:45;;;;;;;6.27;1.60;;;8.30;1.00;;;;;;10360796;28;20432;-78
2023/10/15 00:28:09;;;;;;;6.20;1.67;;;8.40;99.90;;;;;;10359464;28;20210;-79
2023/10/15 00:33:31;;;;;;;7.47;1.77;;;8.40;99.90;;;;;;10345754;28;20262;-79
2023/10/15 00:38:53;;;;;;;6.50;1.60;;;8.30;99.90;;;;;;10344108;28;20230;-79
2023/10/15 00:44:15;;;;;;;14.37;1.87;;;8.30;99.90;;;;;;10359447;28;20199;-79
2023/10/15 00:49:37;;;;;;;6.70;1.50;;;8.20;99.90;;;;;;10354735;28;20223;-79
2023/10/15 00:54:59;;;;;;;10.23;2.03;;;8.20;99.90;;;;;;10363177;28;20198;-79
2023/10/15 01:00:51;;;;;;;11.43;2.10;;;8.20;99.90;;;;;;10357488;28;20396;-78
2023/10/15 01:06:13;;;;;;;9.03;1.80;;;8.10;99.90;;;;;;10372482;28;20214;-79
2023/10/15 01:11:51;;;;;;;5.00;1.40;;;8.10;99.90;;;;;;10358046;28;20485;-78
2023/10/15 01:17:14;;;;;;;6.30;1.47;;;8.00;99.90;;;;;;10356460;28;20213;-79
2023/10/15 01:22:39;;;;;;;8.33;2.07;;;8.00;99.90;;;;;;10359459;28;20228;-78
2023/10/15 01:28:00;;;;;;;8.17;1.90;;;8.00;99.90;;;;;;10377045;28;20236;-78
2023/10/15 01:33:22;;;;;;;6.93;2.00;;;8.00;99.90;;;;;;10358434;28;20198;-78
2023/10/15 01:38:44;;;;;;;7.93;1.80;;;8.00;99.90;;;;;;10340560;28;20243;-78
2023/10/15 01:44:07;;;;;;;12.03;2.30;;;7.90;99.90;;;;;;10357286;28;20195;-80
2023/10/15 01:49:31;;;;;;;12.23;1.57;;;7.90;99.90;;;;;;10341424;28;20207;-80
2023/10/15 01:54:53;;;;;;;9.43;1.83;;;7.90;99.90;;;;;;10330349;28;20549;-80
2023/10/15 02:00:33;;;;;;;11.00;2.03;;;7.90;99.90;;;;;;10364817;28;20305;-79
2023/10/15 02:05:54;;;;;;;11.97;1.83;;;7.80;99.90;;;;;;10346093;28;20434;-79
2023/10/15 02:11:21;;;;;;;3.93;1.40;;;7.90;99.90;;;;;;10356055;28;20439;-80
2023/10/15 02:16:42;;;;;;;13.83;1.70;;;7.80;1.00;;;;;;10309440;28;20293;-79
2023/10/15 02:22:12;;;;;;;9.03;1.47;;;7.70;1.00;;;;;;10313559;28;20233;-80
2023/10/15 02:27:35;;;;;;;9.17;1.80;;;7.70;1.00;;;;;;10369020;28;20391;-80
2023/10/15 02:32:57;;;;;;;13.93;2.30;;;7.70;1.00;;;;;;10339901;28;20432;-79
2023/10/15 02:38:18;;;;;;;7.47;1.90;;;7.70;1.00;;;;;;10355968;28;20489;-79
2023/10/15 02:43:40;;;;;;;7.67;2.10;;;7.70;1.00;;;;;;10353814;28;20500;-79
2023/10/15 02:49:06;;;;;;;9.50;1.90;;;7.70;1.00;;;;;;10349961;28;20467;-80
2023/10/15 02:54:36;;;;;;;7.57;1.63;;;7.80;1.00;;;;;;10344505;28;20257;-80
2023/10/15 03:00:06;;;;;;;8.83;3.17;;;7.80;1.00;;;;;;10340436;28;20225;-79
2023/10/15 03:05:30;;;;;;;6.13;1.70;;;7.90;1.00;;;;;;10319317;28;20198;-80
2023/10/15 03:10:57;;;;;;;7.40;1.70;;;7.90;1.00;;;;;;10313253;28;20387;-79
2023/10/15 03:16:26;;;;;;;6.13;1.57;;;8.00;99.90;;;;;;10313524;28;20194;-80
2023/10/15 03:21:56;;;;;;;9.43;1.30;;;8.00;99.90;;;;;;10306426;28;20233;-79
2023/10/15 03:27:22;;;;;;;6.30;1.90;;;8.00;99.90;;;;;;10354741;28;20452;-80
2023/10/15 03:32:46;;;;;;;6.57;1.40;;;8.00;92.70;;;;;;10338628;28;20213;-80
2023/10/15 03:38:13;;;;;;;6.77;2.00;;;8.20;1.00;;;;;;10339642;28;20234;-80
2023/10/15 03:43:35;;;;;;;6.93;1.67;;;8.10;1.00;;;;;;10338260;28;20400;-80
2023/10/15 03:48:58;;;;;;;9.50;3.60;;;8.00;1.00;;;;;;10353743;28;20205;-78
2023/10/15 03:54:22;;;;;;;4.13;1.83;;;8.00;1.00;;;;;;10349425;28;20248;-79
2023/10/15 03:59:52;;;;;;;10.07;1.90;;;8.00;1.00;;;;;;10312681;28;20298;-79
2023/10/15 04:05:14;;;;;;;4.60;1.37;;;7.90;1.00;;;;;;10328045;28;20245;-80
2023/10/15 04:10:36;;;;;;;6.60;1.80;;;7.90;1.00;;;;;;10328801;28;20202;-77
2023/10/15 04:15:57;;;;;;;7.07;1.40;;;7.90;1.00;;;;;;10311275;28;20210;-79
2023/10/15 04:21:20;;;;;;;5.30;1.53;;;7.90;1.00;;;;;;10304648;28;20254;-80
2023/10/15 04:26:42;;;;;;;3.33;1.50;;;7.90;1.00;;;;;;10319812;28;20217;-78
2023/10/15 04:32:04;;;;;;;3.90;1.70;;;7.80;92.40;;;;;;10327373;28;20434;-79
2023/10/15 04:37:26;;;;;;;5.63;1.40;;;7.90;33.80;;;;;;10358783;28;20290;-78
2023/10/15 04:42:51;;;;;;;4.77;1.20;;;7.90;1.00;;;;;;10359217;28;20304;-77
2023/10/15 04:48:14;;;;;;;5.17;1.40;;;7.90;20.00;;;;;;10326643;28;20197;-78
2023/10/15 04:53:35;;;;;;;3.00;1.20;;;7.90;24.60;;;;;;10357560;28;20444;-79
2023/10/15 04:58:56;;;;;;;5.13;1.60;;;7.90;28.30;;;;;;10318029;28;20231;-79
2023/10/15 05:04:17;;;;;;;5.47;1.97;;;7.90;1.00;;;;;;10343537;28;20207;-79
2023/10/15 05:09:40;;;;;;;9.40;2.10;;;7.80;9.40;;;;;;10317913;28;20202;-79
2023/10/15 05:15:01;;;;;;;4.07;1.13;;;7.80;16.80;;;;;;10344678;28;20209;-78
2023/10/15 05:20:22;;;;;;;5.77;1.53;;;7.80;1.00;;;;;;10357862;28;20233;-79
2023/10/15 05:25:43;;;;;;;6.67;1.40;;;7.70;99.90;;;;;;10324658;28;20286;-79
2023/10/15 05:31:04;;;;;;;4.73;1.47;;;7.70;99.90;;;;;;10324047;28;20216;-79
2023/10/15 05:36:25;;;;;;;4.73;1.20;;;7.80;99.90;;;;;;10358113;28;20250;-78
2023/10/15 05:41:46;;;;;;;4.80;1.67;;;7.80;96.20;;;;;;10355839;28;20229;-79
2023/10/15 05:47:08;;;;;;;6.17;1.60;;;7.90;43.30;;;;;;10356599;28;20212;-79
2023/10/15 05:52:29;;;;;;;4.80;1.20;;;7.90;23.20;;;;;;10353943;28;20210;-78
2023/10/15 05:57:51;;;;;;;3.87;1.80;;;7.90;99.90;;;;;;10355295;28;20282;-79
2023/10/15 06:03:12;;;;;;;11.57;2.03;;;7.90;47.80;;;;;;10339502;28;20252;-79
2023/10/15 06:08:33;;;;;;;8.50;1.87;;;8.00;3.20;;;;;;10357209;28;20228;-80
2023/10/15 06:13:54;;;;;;;5.70;1.47;;;8.10;27.80;;;;;;10355266;28;20207;-79
2023/10/15 06:19:17;;;;;;;4.30;1.50;;;8.10;1.00;;;;;;10356646;28;20360;-79
2023/10/15 06:24:38;;;;;;;4.97;1.53;;;8.20;1.00;;;;;;10354806;28;20528;-80
2023/10/15 06:29:59;;;;;;;7.07;2.07;;;8.60;1.00;;;;;;10354958;28;20283;-80
2023/10/15 06:35:22;;;;;;;5.70;1.37;;;8.80;1.00;;;;;;10350394;28;20235;-79
2023/10/15 06:40:43;;;;;;;7.53;2.37;;;8.90;99.90;;;;;;10355059;28;20214;-79
2023/10/15 06:46:08;;;;;;;5.77;1.97;;;8.80;99.90;;;;;;10301169;28;20274;-78
2023/10/15 06:51:29;;;;;;;9.27;1.63;;;8.80;1.00;;;;;;10344439;28;20208;-80
2023/10/15 06:56:50;;;;;;;6.23;2.37;;;9.20;99.90;;;;;;10340181;28;20214;-79
2023/10/15 07:02:13;;;;;;;13.93;2.23;;;9.50;99.90;;;;;;10352965;28;20380;-80
2023/10/15 07:07:34;;;;;;;4.57;1.43;;;9.60;99.90;;;;;;10354249;28;20192;-79
2023/10/15 07:12:56;;;;;;;6.20;1.53;;;9.40;99.90;;;;;;10352262;28;20522;-81
2023/10/15 07:18:17;;;;;;;8.97;2.10;;;9.30;99.90;;;;;;10354518;28;20487;-79
2023/10/15 07:23:38;;;;;;;4.73;1.53;;;9.20;99.90;;;;;;10366074;28;20237;-78
2023/10/15 07:28:59;;;;;;;5.10;1.83;;;9.50;99.90;;;;;;10354394;28;20363;-78
2023/10/15 07:34:22;;;;;;;5.73;2.00;;;10.30;99.90;;;;;;10352457;28;20233;-80
2023/10/15 07:39:43;;;;;;;4.67;1.90;;;10.90;1.00;;;;;;10313830;28;20228;-80
2023/10/15 07:45:05;;;;;;;6.57;1.53;;;10.50;1.00;;;;;;10349618;28;20550;-79
2023/10/15 07:50:28;;;;;;;6.13;1.57;;;10.30;1.00;;;;;;10353930;28;20200;-77
2023/10/15 07:55:49;;;;;;;5.07;1.83;;;9.90;1.00;;;;;;10331268;28;20387;-80
2023/10/15 08:01:11;;;;;;;6.33;1.90;;;9.80;1.00;;;;;;10359447;28;20228;-78
2023/10/15 08:06:34;;;;;;;3.63;1.53;;;9.90;3.20;;;;;;10346915;28;20204;-78
2023/10/15 08:11:56;;;;;;;5.93;1.60;;;10.40;1.00;;;;;;10360716;28;20507;-78
2023/10/15 08:17:17;;;;;;;3.97;1.70;;;10.40;1.00;;;;;;10360323;28;20207;-79
2023/10/15 08:22:44;;;;;;;5.67;1.40;;;10.20;1.00;;;;;;10359819;28;20245;-79
2023/10/15 08:28:05;;;;;;;8.80;2.27;;;10.20;1.00;;;;;;10361353;28;20220;-80
2023/10/15 08:33:26;;;;;;;7.20;1.83;;;10.40;1.00;;;;;;10332481;28;20500;-79
2023/10/15 08:38:49;;;;;;;5.43;1.63;;;10.30;1.00;;;;;;10354539;28;20546;-78
2023/10/15 08:44:12;;;;;;;7.77;2.13;;;10.30;1.00;;;;;;10319580;28;20202;-79
2023/10/15 08:49:34;;;;;;;3.83;1.70;;;10.50;1.00;;;;;;10336943;28;20203;-79
2023/10/15 08:55:01;;;;;;;4.87;1.40;;;10.50;1.00;;;;;;10358794;28;20212;-79
2023/10/15 09:00:26;;;;;;;8.37;2.13;;;10.70;1.00;;;;;;10354478;28;20298;-79
2023/10/15 09:05:52;;;;;;;7.10;2.00;;;10.80;1.00;;;;;;10359376;28;20214;-78
2023/10/15 09:11:13;;;;;;;6.63;2.03;;;10.80;1.00;;;;;;10358227;28;20236;-78
2023/10/15 09:16:35;;;;;;;6.83;1.77;;;10.70;1.00;;;;;;10358808;28;20475;-79
2023/10/15 09:21:56;;;;;;;7.37;2.60;;;10.80;1.00;;;;;;10325981;28;20252;-79
2023/10/15 09:27:17;;;;;;;10.30;1.67;;;10.90;1.00;;;;;;10357462;28;20199;-79
2023/10/15 09:32:40;;;;;;;3.67;1.43;;;10.80;1.00;;;;;;10357394;28;20212;-78
2023/10/15 09:38:01;;;;;;;11.03;3.60;;;10.70;1.00;;;;;;10356877;28;20239;-78
2023/10/15 09:43:24;;;;;;;3.53;1.40;;;10.50;1.00;;;;;;10358400;28;20413;-78
2023/10/15 09:48:46;;;;;;;5.90;1.83;;;10.40;1.00;;;;;;10351168;28;20209;-78
2023/10/15 09:54:11;;;;;;;11.50;3.23;;;10.20;1.00;;;;;;10354049;28;20426;-78
2023/10/15 09:59:32;;;;;;;8.77;3.20;;;10.30;1.00;;;;;;10356208;28;20217;-78
2023/10/15 10:05:41;;;;;;;8.20;2.03;;;10.40;1.00;;;;;;10354104;28;20266;-77
2023/10/15 10:11:30;;;;;;;5.23;1.80;;;10.60;1.00;;;;;;10301900;28;20354;-77
2023/10/15 10:16:53;;;;;;;7.37;2.57;;;10.80;1.00;;;;;;10318154;28;20238;-77
2023/10/15 10:22:24;;;;;;;4.00;1.87;;;10.90;1.00;;;;;;10315181;28;20229;-80
2023/10/15 10:27:45;;;;;;;3.90;1.53;;;11.20;1.00;;;;;;10332119;28;20234;-79
2023/10/15 10:33:09;;;;;;;6.83;2.07;;;12.20;1.00;;;;;;10315593;28;20278;-80
2023/10/15 10:38:34;;;;;;;5.97;2.00;;;12.00;1.00;;;;;;10360540;28;20206;-79
2023/10/15 10:43:58;;;;;;;11.27;2.23;;;11.70;1.00;;;;;;10354523;28;20247;-79
2023/10/15 10:49:39;;;;;;;8.37;1.90;;;11.50;1.00;;;;;;10353475;28;20202;-79
2023/10/15 10:55:32;;;;;;;6.87;1.80;;;11.90;1.00;;;;;;10352277;28;20426;-78
2023/10/15 11:00:53;;;;;;;6.70;2.10;;;12.20;1.00;;;;;;10354106;28;20218;-79
2023/10/15 11:06:15;;;;;;;6.65;1.70;;;12.70;1.00;;;;;;10352814;28;20384;-79
2023/10/15 11:11:38;;;;;;;8.55;1.75;;;14.20;1.00;;;;;;10355143;28;20215;-78
2023/10/15 11:16:59;;;;;;;3.00;1.60;;;15.30;1.00;;;;;;10353464;28;20254;-78
2023/10/15 11:22:20;;;;;;;6.15;2.17;;;14.30;1.00;;;;;;10313695;28;20264;-79
2023/10/15 11:27:42;;;;;;;5.57;2.08;;;15.00;1.00;;;;;;10346750;28;20277;-79
2023/10/15 11:33:07;;;;;;;5.28;1.50;;;15.80;1.00;;;;;;10362380;28;20197;-79
2023/10/15 11:38:35;;;;;;;5.40;1.80;;;15.20;1.00;;;;;;10314728;28;20365;-77
2023/10/15 11:44:02;;;;;;;8.80;2.83;;;13.90;1.00;;;;;;10324292;28;20240;-78
2023/10/15 11:49:25;;;;;;;4.37;1.93;;;13.40;1.00;;;;;;10297956;28;20210;-79
2023/10/15 11:54:49;;;;;;;6.83;1.90;;;13.30;1.00;;;;;;10345446;28;20251;-79
2023/10/15 12:00:22;;;;;;;7.37;1.80;;;14.30;1.00;;;;;;10359588;28;20227;-79
2023/10/15 12:05:44;;;;;;;7.20;1.45;;;14.90;1.00;;;;;;10345434;28;20500;-80
2023/10/15 12:11:05;;;;;;;4.32;1.83;;;15.60;1.00;;;;;;10346984;28;20208;-80
2023/10/15 12:16:26;;;;;;;6.38;1.80;;;16.00;1.00;;;;;;10359827;28;20204;-80
2023/10/15 12:21:47;;;;;;;5.07;1.55;;;16.60;1.00;;;;;;10360365;28;20223;-80
2023/10/15 12:27:09;;;;;;;3.38;1.42;;;16.80;1.00;;;;;;10358736;28;20250;-79
2023/10/15 12:32:30;;;;;;;5.93;2.45;;;15.70;1.00;;;;;;10359380;28;20283;-79
2023/10/15 12:38:02;;;;;;;5.70;2.17;;;16.00;1.00;;;;;;10357907;28;20557;-79
2023/10/15 12:43:23;;;;;;;4.50;1.33;;;15.80;1.00;;;;;;10358991;28;20230;-79
2023/10/15 12:48:44;;;;;;;4.80;1.55;;;15.00;1.00;;;;;;10319377;28;20189;-79
2023/10/15 12:54:06;;;;;;;7.30;1.43;;;14.00;1.00;;;;;;10351631;28;20208;-79
2023/10/15 12:59:28;;;;;;;4.37;1.40;;;13.40;1.00;;;;;;10354396;28;20208;-78
2023/10/15 13:04:49;;;;;;;8.13;1.73;;;12.90;1.00;;;;;;10357162;28;20211;-79
2023/10/15 13:10:13;;;;;;;4.60;1.20;;;12.70;1.00;;;;;;10358251;28;20239;-79
2023/10/15 13:15:34;;;;;;;10.97;1.53;;;13.40;1.00;;;;;;10358462;28;20200;-79
2023/10/15 13:20:59;;;;;;;6.60;1.63;;;14.40;1.00;;;;;;10358008;28;20220;-79
2023/10/15 13:26:20;;;;;;;8.13;1.80;;;14.30;1.00;;;;;;10342897;28;20218;-79
2023/10/15 13:31:41;;;;;;;3.27;1.10;;;13.60;1.00;;;;;;10358834;28;20204;-79
2023/10/15 13:37:03;;;;;;;4.17;1.60;;;13.00;1.00;;;;;;10330664;28;20423;-79
2023/10/15 13:42:25;;;;;;;4.30;1.40;;;12.50;1.00;;;;;;10317704;28;20244;-79
2023/10/15 13:47:48;;;;;;;4.93;1.60;;;12.00;1.00;;;;;;10352240;28;20205;-79
2023/10/15 13:53:10;;;;;;;5.03;2.07;;;11.50;1.00;;;;;;10331347;28;20224;-79
2023/10/15 13:58:31;;;;;;;11.23;3.23;;;11.20;1.00;;;;;;10352680;28;20203;-79
2023/10/15 14:03:54;;;;;;;2.70;1.40;;;10.60;1.00;;;;;;10328542;28;20529;-79
2023/10/15 14:09:15;;;;;;;4.07;1.43;;;9.90;1.00;;;;;;10353734;28;20203;-79
2023/10/15 14:14:37;;;;;;;6.87;1.70;;;9.40;1.00;;;;;;10341485;28;20261;-79
2023/10/15 14:19:59;;;;;;;6.73;2.27;;;9.20;1.00;;;;;;10355845;28;20408;-80
2023/10/15 14:25:20;;;;;;;8.27;2.67;;;9.10;1.00;;;;;;10340696;28;20225;-79
2023/10/15 14:30:42;;;;;;;8.17;1.83;;;9.00;1.00;;;;;;10355518;28;20219;-78
2023/10/15 14:36:03;;;;;;;11.37;3.30;;;8.90;1.00;;;;;;10354106;28;20226;-79
2023/10/15 14:41:25;;;;;;;11.17;4.43;;;8.80;1.00;;;;;;10355878;28;20218;-79
2023/10/15 14:46:47;;;;;;;11.47;5.63;;;8.70;1.00;;;;;;10355207;28;20555;-78
2023/10/15 14:52:09;;;;;;;9.00;4.23;;;8.60;1.00;;;;;;10340381;28;20417;-79
2023/10/15 14:57:34;;;;;;;10.37;3.30;;;8.60;1.00;;;;;;10344014;28;20204;-79
2023/10/15 15:03:11;;;;;;;16.30;6.50;;;8.50;1.00;;;;;;10339443;28;20283;-79
2023/10/15 15:08:32;;;;;;;7.77;3.20;;;8.50;1.00;;;;;;10326761;28;20207;-79
2023/10/15 15:13:53;;;;;;;9.90;2.93;;;8.50;1.00;;;;;;10353418;28;20708;-79
2023/10/15 15:19:15;;;;;;;4.67;1.90;;;8.50;97.30;;;;;;10353886;28;20249;-79
2023/10/15 15:24:37;;;;;;;3.87;1.40;;;8.50;99.90;;;;;;10353803;28;20264;-79
2023/10/15 15:29:59;;;;;;;7.37;2.33;;;8.50;1.00;;;;;;10339418;28;20203;-79
2023/10/15 15:35:20;;;;;;;5.07;2.43;;;8.50;99.90;;;;;;10353107;28;20390;-79
2023/10/15 15:40:48;;;;;;;5.27;2.43;;;8.50;99.90;;;;;;10336903;28;20522;-79
2023/10/15 15:46:11;;;;;;;4.77;1.90;;;8.50;1.00;;;;;;10353558;28;20194;-78
2023/10/15 15:51:33;;;;;;;4.60;1.57;;;8.50;1.00;;;;;;10337335;28;20199;-79
2023/10/15 15:56:54;;;;;;;8.03;1.77;;;8.40;1.00;;;;;;10350186;28;20208;-79
2023/10/15 16:02:15;;;;;;;8.17;1.90;;;8.30;1.00;;;;;;10354053;28;20232;-79
2023/10/15 16:07:37;;;;;;;6.47;1.80;;;;;;;;;;10351891;28;20367;-79
2023/10/15 16:12:59;;;;;;;4.83;2.00;;;8.00;99.90;;;;;;10351914;28;20198;-78
2023/10/15 16:18:20;;;;;;;6.53;1.83;;;7.90;99.90;;;;;;10344944;28;20198;-79
2023/10/15 16:23:41;;;;;;;9.63;2.93;;;7.70;1.00;;;;;;10358895;28;20225;-79
2023/10/15 16:29:03;;;;;;;9.80;3.30;;;7.70;99.90;;;;;;10360039;28;20272;-79
2023/10/15 16:34:24;;;;;;;6.73;3.13;;;7.80;1.00;;;;;;10358574;28;20426;-79
2023/10/15 16:39:46;;;;;;;13.07;5.90;;;7.70;1.00;;;;;;10351144;28;20206;-79
2023/10/15 16:45:08;;;;;;;8.10;3.53;;;7.90;1.00;;;;;;10358214;28;20222;-79
2023/10/15 16:50:29;;;;;;;9.87;3.77;;;;;;;;;;10357130;28;20748;-78
2023/10/15 16:55:51;;;;;;;15.43;4.37;;;7.90;1.00;;;;;;10348798;28;20206;-78
2023/10/15 17:01:13;;;;;;;7.17;2.27;;;8.00;99.90;;;;;;10359894;28;20251;-79
2023/10/15 17:06:34;;;;;;;7.40;2.13;;;8.00;69.50;;;;;;10357146;28;20289;-79
2023/10/15 17:11:56;;;;;;;7.27;2.40;;;8.10;1.00;;;;;;10358552;28;20202;-78
2023/10/15 17:17:17;;;;;;;6.57;2.07;;;8.10;99.90;;;;;;10358254;28;20197;-79
2023/10/15 17:22:38;;;;;;;8.07;2.30;;;8.10;99.90;;;;;;10358161;28;20249;-78
2023/10/15 17:27:59;;;;;;;11.27;2.67;;;8.10;66.20;;;;;;10356342;28;20201;-78
2023/10/15 17:33:20;;;;;;;8.67;3.33;;;8.10;99.90;;;;;;10354825;28;20260;-79
2023/10/15 17:38:41;;;;;;;5.87;1.93;;;8.00;1.00;;;;;;10333503;28;20276;-79
2023/10/15 17:44:03;;;;;;;4.50;1.60;;;7.90;1.00;;;;;;10352366;28;20239;-79
2023/10/15 17:49:24;;;;;;;5.43;1.53;;;7.90;1.00;;;;;;10357695;28;20484;-79
2023/10/15 17:54:45;;;;;;;4.80;1.83;;;7.80;99.90;;;;;;10354957;28;20211;-79
2023/10/15 18:00:11;;;;;;;3.30;1.23;;;7.80;99.90;;;;;;10355952;28;20201;-79
2023/10/15 18:05:36;;;;;;;2.57;0.90;;;7.70;99.90;;;;;;10316168;28;20241;-79
2023/10/15 18:10:57;;;;;;;2.50;1.10;;;7.60;99.90;;;;;;10354671;28;20512;-78
2023/10/15 18:16:19;;;;;;;4.13;1.27;;;7.60;1.00;;;;;;10339212;28;20213;-78
2023/10/15 18:21:40;;;;;;;2.70;1.20;;;7.50;11.70;;;;;;10329164;28;20257;-79
2023/10/15 18:27:03;;;;;;;1.47;1.10;;;7.50;1.00;;;;;;10352680;28;20198;-76
2023/10/15 18:32:24;;;;;;;2.77;1.20;;;7.40;99.90;;;;;;10325333;28;20205;-78
2023/10/15 18:37:46;;;;;;;2.57;1.00;;;7.30;1.00;;;;;;10354548;28;20254;-79
2023/10/15 18:43:07;;;;;;;4.53;1.17;;;7.30;99.90;;;;;;10354648;28;20224;-79
2023/10/15 18:48:28;;;;;;;6.07;0.93;;;7.20;1.00;;;;;;10349467;28;20209;-77
2023/10/15 18:53:50;;;;;;;1.57;0.87;;;7.20;1.00;;;;;;10357388;28;20205;-78
2023/10/15 18:59:11;;;;;;;1.10;0.83;;;7.20;99.90;;;;;;10355330;28;20546;-78
2023/10/15 19:04:32;;;;;;;3.13;1.40;;;7.20;1.00;;;;;;10361296;28;20241;-78
2023/10/15 19:09:55;;;;;;;4.03;1.40;;;7.30;1.00;;;;;;10366440;28;20197;-79
2023/10/15 19:15:17;;;;;;;28.90;16.73;;;7.30;1.00;;;;;;10359808;28;20205;-78
2023/10/15 19:20:38;;;;;;;3.77;2.50;;;7.20;45.20;;;;;;10355008;28;20224;-78
2023/10/15 19:26:08;;;;;;;5.47;1.90;;;7.30;99.90;;;;;;10326155;28;20208;-78
2023/10/15 19:31:29;;;;;;;3.10;1.20;;;7.20;99.90;;;;;;10390017;28;20208;-79
2023/10/15 19:36:51;;;;;;;2.40;1.30;;;7.20;1.00;;;;;;10313182;28;20242;-79
2023/10/15 19:42:12;;;;;;;2.10;0.90;;;7.20;1.00;;;;;;10334365;28;20299;-79
2023/10/15 19:47:34;;;;;;;2.03;0.87;;;7.20;99.90;;;;;;10353116;28;20223;-78
2023/10/15 19:52:55;;;;;;;4.23;1.23;;;7.20;99.90;;;;;;10354856;28;20215;-80
2023/10/15 19:58:17;;;;;;;2.13;0.97;;;7.20;99.90;;;;;;10360797;28;20243;-79
2023/10/15 20:03:38;;;;;;;8.70;5.63;;;7.20;1.00;;;;;;10360442;28;20236;-79
2023/10/15 20:09:10;;;;;;;5.03;3.53;;;7.20;1.00;;;;;;10361947;28;20292;-78
2023/10/15 20:14:31;;;;;;;3.63;2.20;;;7.30;1.00;;;;;;10359504;28;20245;-80
2023/10/15 20:19:52;;;;;;;2.70;1.53;;;7.20;1.00;;;;;;10361877;28;20270;-79
2023/10/15 20:25:15;;;;;;;4.77;1.30;;;7.20;1.00;;;;;;10331568;28;20261;-79
2023/10/15 20:30:36;;;;;;;3.77;1.20;;;7.20;1.00;;;;;;10351734;28;20234;-79
2023/10/15 20:35:58;;;;;;;2.23;1.00;;;7.20;1.00;;;;;;10346957;28;20358;-80
2023/10/15 20:41:21;;;;;;;4.87;1.40;;;7.30;1.00;;;;;;10358461;28;20229;-79
2023/10/15 20:52:09;;;;;;;2.50;1.00;;;7.30;1.00;;;;;;10357545;28;20213;-78
2023/10/15 20:57:31;;;;;;;3.93;1.50;;;7.40;1.00;;;;;;10352917;28;20199;-79
2023/10/15 21:02:53;;;;;;;2.73;1.57;;;7.50;1.00;;;;;;10357056;28;20275;-79
2023/10/15 21:13:35;;;;;;;3.27;1.37;;;7.30;1.00;;;;;;10343041;28;20199;-80
2023/10/15 21:18:56;;;;;;;2.20;1.00;;;7.40;1.00;;;;;;10358929;28;20293;-79
2023/10/15 21:24:17;;;;;;;12.00;7.50;;;7.40;1.00;;;;;;10357070;28;20525;-79
2023/10/15 21:29:39;;;;;;;59.87;41.30;;;7.50;1.00;;;;;;10358230;28;20190;-78
2023/10/15 21:35:01;;;;;;;15.33;10.20;;;7.50;1.00;;;;;;10355546;28;20256;-80
2023/10/15 21:40:22;;;;;;;7.40;4.00;;;7.50;1.00;;;;;;10358719;28;20486;-78
2023/10/15 21:45:45;;;;;;;5.40;2.93;;;7.50;1.00;;;;;;10357021;28;20254;-78
2023/10/15 21:51:08;;;;;;;5.90;2.07;;;7.50;1.00;;;;;;10358451;28;20199;-80
2023/10/15 21:56:30;;;;;;;2.00;1.17;;;7.50;1.00;;;;;;10356215;28;20221;-79
2023/10/15 22:01:51;;;;;;;3.77;2.17;;;7.50;1.00;;;;;;10357555;28;20222;-78
2023/10/15 22:07:12;;;;;;;10.33;7.23;;;7.50;1.00;;;;;;10353913;28;20237;-80
2023/10/15 22:12:34;;;;;;;10.70;6.70;;;7.40;1.00;;;;;;10354609;28;20233;-79
2023/10/15 22:17:55;;;;;;;8.07;2.50;;;7.40;99.90;;;;;;10356832;28;20201;-79
2023/10/15 22:23:22;;;;;;;6.93;1.70;;;7.30;1.00;;;;;;10354224;28;20473;-79
2023/10/15 22:28:46;;;;;;;3.77;1.77;;;7.30;1.00;;;;;;10355547;28;20245;-79
2023/10/15 22:34:08;;;;;;;6.37;1.47;;;7.30;1.00;;;;;;10354373;28;20206;-79
2023/10/15 22:39:31;;;;;;;3.20;1.67;;;7.30;1.00;;;;;;10315423;28;20276;-78
2023/10/15 22:44:53;;;;;;;2.20;1.10;;;7.20;1.00;;;;;;10341799;28;20222;-79
2023/10/15 22:50:17;;;;;;;5.20;1.50;;;7.20;1.00;;;;;;10353304;28;20207;-79
2023/10/15 22:55:41;;;;;;;3.17;1.50;;;7.20;1.00;;;;;;10352962;28;20191;-79
2023/10/15 23:01:03;;;;;;;3.20;1.10;;;7.10;1.00;;;;;;10355366;28;20204;-79
2023/10/15 23:06:24;;;;;;;4.80;1.43;;;7.20;1.00;;;;;;10353672;28;20402;-79
2023/10/15 23:11:46;;;;;;;3.73;1.50;;;7.10;1.00;;;;;;10354550;28;20250;-78
2023/10/15 23:17:07;;;;;;;3.00;1.13;;;7.20;1.00;;;;;;10323059;28;20208;-79
2023/10/15 23:22:28;;;;;;;3.40;1.30;;;7.20;5.90;;;;;;10314511;28;20254;-78
2023/10/15 23:27:50;;;;;;;4.67;1.30;;;7.20;1.00;;;;;;10346816;28;20221;-78
2023/10/15 23:33:11;;;;;;;4.50;1.07;;;7.30;1.00;;;;;;10353892;28;20487;-80
2023/10/15 23:38:33;;;;;;;5.53;1.00;;;7.30;18.20;;;;;;10354030;28;20221;-79
2023/10/15 23:43:56;;;;;;;3.40;1.00;;;7.30;59.40;;;;;;10352108;28;20251;-77
2023/10/15 23:49:25;;;;;;;4.83;1.00;;;7.30;1.00;;;;;;10353291;28;20190;-79
2023/10/15 23:54:51;;;;;;;5.03;1.10;;;7.20;1.00;;;;;;10352170;28;20289;-79
